createdAt,value
2023-03-23T15:58:53.934Z,1.80
2023-03-23T16:01:31.501Z,1.35
2023-03-23T16:04:07.850Z,1.60
2023-03-23T16:06:36.199Z,1.80
2023-03-23T16:09:07.153Z,1.60
2023-03-23T16:11:36.751Z,1.55
2023-03-23T16:14:03.610Z,1.70
2023-03-23T16:16:38.279Z,1.63
2023-03-23T16:19:06.660Z,1.70
2023-03-23T16:21:36.169Z,1.63
2023-03-23T16:24:05.570Z,1.58
2023-03-23T16:26:34.783Z,1.42
2023-03-23T16:29:14.554Z,2.30
2023-03-23T16:31:50.606Z,1.35
2023-03-23T16:34:17.514Z,1.38
2023-03-23T16:36:44.443Z,1.75
2023-03-23T16:39:15.848Z,2.35
2023-03-23T16:41:42.833Z,2.15
2023-03-23T16:44:09.661Z,1.90
2023-03-23T16:46:36.642Z,2.10
2023-03-23T16:49:03.651Z,1.60
2023-03-23T16:51:30.524Z,1.40
2023-03-23T16:53:57.464Z,1.60
2023-03-23T16:56:24.683Z,1.52
2023-03-23T16:58:51.571Z,1.50
2023-03-23T17:01:19.821Z,1.58
2023-03-23T17:03:49.509Z,1.67
2023-03-23T17:06:19.017Z,1.73
2023-03-23T17:08:45.923Z,1.48
2023-03-23T17:11:12.856Z,1.40
2023-03-23T17:13:42.743Z,1.52
2023-03-23T17:16:12.320Z,1.42
2023-03-23T17:18:39.245Z,1.60
2023-03-23T17:21:06.852Z,1.90
2023-03-23T17:23:33.799Z,1.30
2023-03-23T17:26:01.363Z,1.60
2023-03-23T17:28:30.407Z,1.58
2023-03-23T17:30:57.488Z,1.90
2023-03-23T17:33:24.336Z,2.15
2023-03-23T17:35:52.138Z,8.68
2023-03-23T17:38:22.017Z,5.90
2023-03-23T17:40:56.545Z,3.83
2023-03-23T17:43:25.625Z,2.55
2023-03-23T17:45:52.595Z,2.20
2023-03-23T17:48:19.577Z,1.98
2023-03-23T17:50:57.392Z,2.38
2023-03-23T17:53:26.094Z,6.35
2023-03-23T17:55:57.072Z,4.18
2023-03-23T17:58:26.975Z,4.22
2023-03-23T18:00:55.902Z,3.45
2023-03-23T18:03:24.506Z,2.80
2023-03-23T18:05:52.745Z,2.67
2023-03-23T18:08:19.623Z,2.28
2023-03-23T18:10:46.913Z,2.35
2023-03-23T18:13:13.851Z,2.33
2023-03-23T18:15:46.700Z,2.20
2023-03-23T18:18:17.090Z,2.42
2023-03-23T18:20:44.170Z,2.25
2023-03-23T18:23:12.117Z,2.35
2023-03-23T18:25:40.279Z,2.28
2023-03-23T18:28:07.265Z,2.13
2023-03-23T18:30:35.333Z,2.38
2023-03-23T18:33:04.342Z,2.50
2023-03-23T18:35:31.331Z,2.58
2023-03-23T18:37:58.429Z,2.35
2023-03-23T18:40:25.786Z,2.53
2023-03-23T18:42:52.722Z,2.50
2023-03-23T18:45:19.638Z,1.77
2023-03-23T18:47:46.620Z,1.98
2023-03-23T18:50:16.876Z,1.92
2023-03-23T18:52:45.089Z,2.53
2023-03-23T18:55:11.982Z,2.38
2023-03-23T18:57:44.511Z,2.88
2023-03-23T19:00:12.276Z,3.20
2023-03-23T19:02:41.835Z,2.92
2023-03-23T19:05:09.824Z,2.65
2023-03-23T19:07:38.313Z,2.60
2023-03-23T19:10:05.895Z,2.50
2023-03-23T19:12:32.828Z,2.72
2023-03-23T19:14:59.716Z,2.40
2023-03-23T19:17:26.963Z,2.28
2023-03-23T19:22:27.194Z,2.28
2023-03-23T19:24:54.045Z,2.70
2023-03-23T19:27:21.248Z,2.65
2023-03-23T19:29:48.385Z,2.40
2023-03-23T19:32:15.684Z,2.47
2023-03-23T19:34:50.911Z,2.63
2023-03-23T19:37:18.666Z,3.30
2023-03-23T19:39:48.208Z,3.42
2023-03-23T19:42:18.084Z,3.85
2023-03-23T19:44:45.362Z,4.60
2023-03-23T19:47:14.841Z,4.78
2023-03-23T19:49:42.009Z,4.70
2023-03-23T19:52:12.682Z,4.10
2023-03-23T19:54:46.065Z,4.30
2023-03-23T19:57:14.030Z,3.80
2023-03-23T19:59:41.016Z,3.90
2023-03-23T20:02:11.566Z,3.35
2023-03-23T20:04:41.411Z,2.73
2023-03-23T20:07:08.427Z,2.47
2023-03-23T20:09:36.995Z,2.90
2023-03-23T20:12:05.077Z,2.53
2023-03-23T20:14:33.503Z,2.58
2023-03-23T20:17:00.722Z,2.60
2023-03-23T20:19:30.777Z,3.13
2023-03-23T20:21:57.735Z,3.08
2023-03-23T20:24:24.850Z,3.05
2023-03-23T20:26:52.323Z,3.10
2023-03-23T20:29:21.795Z,3.65
2023-03-23T20:31:50.808Z,3.90
2023-03-23T20:34:31.398Z,4.10
2023-03-23T20:37:00.641Z,3.80
2023-03-23T20:39:30.923Z,3.33
2023-03-23T20:42:03.371Z,2.80
2023-03-23T20:44:34.762Z,2.70
2023-03-23T20:47:03.289Z,2.53
2023-03-23T20:49:33.421Z,2.40
2023-03-23T20:52:01.217Z,2.58
2023-03-23T20:54:28.760Z,2.40
2023-03-23T20:57:01.129Z,2.30
2023-03-23T20:59:30.854Z,2.80
2023-03-23T21:01:57.805Z,3.08
2023-03-23T21:04:30.267Z,2.83
2023-03-23T21:06:57.764Z,3.10
2023-03-23T21:09:25.460Z,2.90
2023-03-23T21:11:59.417Z,2.80
2023-03-23T21:14:27.023Z,3.45
2023-03-23T21:16:53.991Z,3.15
2023-03-23T21:19:21.533Z,3.08
2023-03-23T21:21:56.780Z,2.60
2023-03-23T21:24:29.492Z,2.92
2023-03-23T21:27:00.546Z,3.17
2023-03-23T21:29:32.361Z,3.95
2023-03-23T21:32:08.141Z,5.38
2023-03-23T21:34:37.130Z,6.93
2023-03-23T21:37:04.218Z,5.75
2023-03-23T21:39:31.669Z,6.28
2023-03-23T21:41:59.589Z,5.70
2023-03-23T21:44:26.707Z,5.53
2023-03-23T21:46:54.606Z,5.35
2023-03-23T21:49:21.920Z,4.88
2023-03-23T21:51:50.036Z,4.68
2023-03-23T21:54:17.198Z,4.75
2023-03-23T21:56:49.005Z,4.50
2023-03-23T21:59:17.634Z,3.78
2023-03-23T22:01:44.625Z,3.95
2023-03-23T22:04:11.844Z,4.03
2023-03-23T22:06:42.433Z,3.78
2023-03-23T22:09:11.959Z,3.33
2023-03-23T22:11:39.284Z,2.90
2023-03-23T22:14:06.925Z,3.05
2023-03-23T22:16:38.706Z,2.72
2023-03-23T22:19:08.416Z,2.78
2023-03-23T22:21:36.712Z,2.72
2023-03-23T22:24:08.877Z,2.92
2023-03-23T22:26:38.321Z,1.95
2023-03-23T22:29:06.936Z,2.85
2023-03-23T22:31:37.293Z,2.72
2023-03-23T22:34:04.375Z,3.40
2023-03-23T22:36:33.756Z,3.08
2023-03-23T22:39:04.152Z,3.03
2023-03-23T22:41:42.550Z,3.00
2023-03-23T22:44:19.370Z,3.00
2023-03-23T22:46:47.344Z,3.08
2023-03-23T22:49:14.935Z,2.78
2023-03-23T22:51:44.381Z,2.65
2023-03-23T22:54:11.910Z,2.72
2023-03-23T22:56:38.975Z,2.90
2023-03-23T22:59:07.222Z,3.30
2023-03-23T23:01:36.959Z,3.03
2023-03-23T23:04:06.582Z,2.97
2023-03-23T23:06:34.060Z,3.35
2023-03-23T23:09:01.160Z,2.78
2023-03-23T23:11:31.483Z,3.33
2023-03-23T23:13:58.479Z,3.22
2023-03-23T23:16:27.633Z,3.03
2023-03-23T23:19:00.315Z,3.00
2023-03-23T23:21:29.721Z,3.30
2023-03-23T23:24:01.346Z,3.88
2023-03-23T23:26:28.460Z,3.92
2023-03-23T23:28:57.845Z,4.00
2023-03-23T23:31:29.221Z,3.50
2023-03-23T23:33:59.539Z,3.95
2023-03-23T23:36:28.108Z,3.65
2023-03-23T23:38:56.290Z,3.10
2023-03-23T23:41:24.266Z,3.50
2023-03-23T23:43:51.202Z,3.25
2023-03-23T23:46:20.939Z,3.30
2023-03-23T23:48:48.482Z,3.00
2023-03-23T23:51:16.625Z,3.22
2023-03-23T23:53:46.254Z,2.83
2023-03-23T23:56:14.323Z,2.83
2023-03-23T23:58:41.373Z,3.00
